Verdigre, Nebraska
Current Conditions -  °F | °C
As of 8:15 PM on Saturday 25 Oct 2014 (Local Time) from KONL Reporting Station
Clear Clear  
Wind Chill: 55°   Ceiling: Unl
Heat Index: 55°   Visibility: 10mi
Dew Point: 37°   Wind: 9mph
Humidity: 50%   Direction: 90°E
Pressure: 30.04"   Gusts: NA
Location:  42.6°N, 98.03°W
Report Text: KONL 260115Z AUTO 09008KT 10SM CLR 13/03 A3004 RMK AO2 T01300028
Loading
Personal Weather Stations






























Interactive Weather Map
Tropical Storm Tracking
New forecast layout! Learn more

10-Day Weather Forecast

Advertisements
Track Severe Weather on mobile